createdAt,value
2023-01-01T00:01:22.036Z,16.40
2023-01-01T00:03:50.288Z,16.40
2023-01-01T00:06:17.413Z,16.40
2023-01-01T00:08:44.173Z,16.40
2023-01-01T00:11:11.459Z,16.40
2023-01-01T00:13:40.219Z,16.30
2023-01-01T00:16:08.098Z,16.10
2023-01-01T00:18:36.322Z,16.30
2023-01-01T00:21:04.531Z,16.30
2023-01-01T00:23:31.654Z,16.40
2023-01-01T00:26:08.502Z,16.30
2023-01-01T00:28:35.368Z,16.30
2023-01-01T00:31:08.649Z,16.30
2023-01-01T00:33:35.951Z,15.90
2023-01-01T00:36:06.861Z,16.20
2023-01-01T00:38:35.216Z,16.30
2023-01-01T00:41:02.400Z,16.30
2023-01-01T00:43:29.064Z,16.30
2023-01-01T00:45:55.809Z,16.20
2023-01-01T00:48:22.699Z,16.30
2023-01-01T00:50:51.014Z,16.30
2023-01-01T00:53:17.830Z,16.30
2023-01-01T00:55:44.505Z,16.30
2023-01-01T00:58:11.153Z,16.90
2023-01-01T01:00:38.497Z,16.20
2023-01-01T01:03:05.209Z,16.30
2023-01-01T01:05:32.681Z,16.30
2023-01-01T01:08:00.035Z,16.20
2023-01-01T01:10:26.692Z,16.20
2023-01-01T01:12:53.385Z,16.30
2023-01-01T01:15:20.252Z,16.40
2023-01-01T01:17:47.313Z,16.30
2023-01-01T01:20:14.026Z,16.50
2023-01-01T01:22:41.021Z,18.00
2023-01-01T01:25:09.364Z,16.30
2023-01-01T01:27:36.024Z,16.10
2023-01-01T01:30:02.715Z,16.30
2023-01-01T01:32:29.324Z,16.20
2023-01-01T01:34:55.970Z,16.20
2023-01-01T01:37:22.596Z,16.30
2023-01-01T01:39:53.755Z,16.20
2023-01-01T01:42:21.771Z,16.20
2023-01-01T01:44:57.403Z,16.20
2023-01-01T01:47:29.133Z,16.40
2023-01-01T01:50:01.075Z,16.20
2023-01-01T01:52:30.116Z,16.30
2023-01-01T01:54:57.828Z,16.20
2023-01-01T01:57:25.177Z,16.30
2023-01-01T01:59:55.247Z,16.30
2023-01-01T02:02:29.837Z,16.20
2023-01-01T02:04:57.049Z,16.20
2023-01-01T02:07:25.612Z,16.30
2023-01-01T02:09:53.016Z,16.30
2023-01-01T02:12:19.704Z,16.30
2023-01-01T02:14:47.042Z,16.30
2023-01-01T02:17:20.756Z,16.40
2023-01-01T02:20:03.775Z,16.40
2023-01-01T02:22:35.196Z,16.30
2023-01-01T02:25:12.372Z,16.30
2023-01-01T02:27:50.029Z,16.30
2023-01-01T02:30:18.600Z,16.30
2023-01-01T02:32:49.337Z,16.30
2023-01-01T02:35:35.806Z,16.40
2023-01-01T02:38:07.316Z,16.30
2023-01-01T02:40:37.341Z,16.30
2023-01-01T02:43:04.644Z,16.20
2023-01-01T02:45:32.428Z,16.20
2023-01-01T02:48:04.155Z,16.20
2023-01-01T02:50:30.963Z,16.20
2023-01-01T02:53:17.907Z,16.20
2023-01-01T02:55:53.484Z,16.20
2023-01-01T02:58:44.791Z,16.20
2023-01-01T03:01:21.015Z,16.20
2023-01-01T03:03:55.694Z,16.10
2023-01-01T03:06:28.454Z,16.10
2023-01-01T03:09:10.335Z,16.30
2023-01-01T03:11:46.520Z,15.90
2023-01-01T03:14:20.941Z,15.80
2023-01-01T03:16:50.853Z,15.80
2023-01-01T03:19:20.082Z,16.00
2023-01-01T03:21:50.687Z,16.00
2023-01-01T03:24:22.415Z,16.10
2023-01-01T03:26:54.125Z,16.10
2023-01-01T03:29:23.043Z,16.00
2023-01-01T03:31:53.227Z,15.90
2023-01-01T03:34:25.404Z,15.90
2023-01-01T03:36:55.912Z,15.90
2023-01-01T03:39:27.912Z,15.70
2023-01-01T03:42:05.130Z,15.80
2023-01-01T03:44:35.575Z,15.90
2023-01-01T03:47:05.619Z,16.00
2023-01-01T03:49:33.498Z,15.80
2023-01-01T03:52:12.324Z,15.80
2023-01-01T03:54:45.828Z,15.80
2023-01-01T03:57:20.030Z,16.40
2023-01-01T03:59:52.978Z,15.70
2023-01-01T04:02:24.776Z,15.70
2023-01-01T04:04:51.490Z,15.70
2023-01-01T04:07:18.309Z,15.70
2023-01-01T04:09:49.207Z,15.70
2023-01-01T04:12:17.410Z,15.40
2023-01-01T04:14:44.072Z,15.60
2023-01-01T04:17:12.249Z,15.80
2023-01-01T04:19:39.607Z,15.70
2023-01-01T04:22:06.490Z,15.70
2023-01-01T04:24:33.102Z,15.80
2023-01-01T04:26:59.896Z,15.70
2023-01-01T04:29:26.689Z,15.50
2023-01-01T04:31:53.593Z,15.70
2023-01-01T04:34:20.234Z,15.50
2023-01-01T04:36:47.533Z,16.50
2023-01-01T04:39:14.264Z,15.50
2023-01-01T04:41:40.867Z,15.40
2023-01-01T04:44:08.014Z,15.70
2023-01-01T04:46:34.590Z,15.50
2023-01-01T04:49:01.202Z,15.80
2023-01-01T04:51:27.856Z,15.50
2023-01-01T04:53:55.170Z,15.50
2023-01-01T04:56:22.195Z,15.50
2023-01-01T04:58:49.223Z,15.50
2023-01-01T05:01:18.516Z,15.50
2023-01-01T05:03:45.592Z,15.50
2023-01-01T05:06:13.162Z,15.30
2023-01-01T05:08:41.312Z,15.50
2023-01-01T05:11:09.696Z,15.40
2023-01-01T05:13:36.804Z,15.50
2023-01-01T05:16:04.015Z,15.50
2023-01-01T05:18:31.145Z,15.40
2023-01-01T05:21:00.290Z,15.50
2023-01-01T05:23:27.099Z,15.50
2023-01-01T05:25:53.689Z,15.60
2023-01-01T05:28:21.095Z,15.50
2023-01-01T05:30:47.683Z,15.50
2023-01-01T05:33:14.366Z,15.50
2023-01-01T05:35:41.063Z,15.50
2023-01-01T05:38:07.648Z,15.50
2023-01-01T05:40:34.277Z,15.50
2023-01-01T05:43:00.900Z,15.50
2023-01-01T05:45:28.192Z,15.50
2023-01-01T05:47:55.812Z,15.60
2023-01-01T05:50:22.434Z,15.40
2023-01-01T05:52:49.005Z,15.40
2023-01-01T05:55:15.750Z,15.30
2023-01-01T05:57:42.350Z,15.30
2023-01-01T06:00:10.263Z,15.10
2023-01-01T06:02:37.634Z,15.20
2023-01-01T06:05:04.909Z,15.10
2023-01-01T06:07:31.523Z,15.20
2023-01-01T06:09:58.164Z,15.00
2023-01-01T06:12:24.770Z,15.00
2023-01-01T06:14:51.360Z,15.00
2023-01-01T06:17:18.199Z,15.00
2023-01-01T06:19:45.443Z,15.00
2023-01-01T06:22:12.031Z,15.20
2023-01-01T06:24:39.213Z,14.90
2023-01-01T06:27:06.549Z,14.90
2023-01-01T06:29:33.228Z,15.00
2023-01-01T06:31:59.891Z,15.00
2023-01-01T06:34:26.568Z,14.90
2023-01-01T06:36:53.817Z,13.60
2023-01-01T06:39:20.418Z,15.00
2023-01-01T06:41:47.033Z,15.20
2023-01-01T06:44:13.607Z,15.00
2023-01-01T06:46:40.234Z,15.10
2023-01-01T06:49:10.315Z,15.10
2023-01-01T06:51:38.726Z,15.10
2023-01-01T06:54:07.075Z,15.30
2023-01-01T06:56:34.663Z,15.10
2023-01-01T06:59:01.810Z,15.10
2023-01-01T07:01:30.065Z,15.20
2023-01-01T07:03:58.235Z,15.00
2023-01-01T07:06:25.927Z,15.00
2023-01-01T07:08:52.965Z,15.10
2023-01-01T07:11:20.341Z,15.20
2023-01-01T07:13:47.061Z,15.00
2023-01-01T07:16:14.015Z,15.10
2023-01-01T07:18:41.496Z,14.80
2023-01-01T07:21:29.099Z,15.20
2023-01-01T07:23:57.121Z,15.20
2023-01-01T07:26:24.917Z,15.20
2023-01-01T07:28:52.079Z,15.20
2023-01-01T07:31:19.085Z,15.30
2023-01-01T07:33:45.751Z,15.20
2023-01-01T07:36:12.420Z,15.30
2023-01-01T07:38:39.617Z,15.20
2023-01-01T07:41:06.648Z,15.40
2023-01-01T07:43:34.028Z,15.30
2023-01-01T07:46:01.290Z,15.30
2023-01-01T07:48:28.547Z,15.30
2023-01-01T07:50:55.227Z,15.30
2023-01-01T07:53:21.993Z,15.30
2023-01-01T07:55:48.635Z,15.30
2023-01-01T07:58:15.320Z,15.30
2023-01-01T08:00:46.211Z,15.50
2023-01-01T08:03:12.963Z,15.40
2023-01-01T08:05:39.620Z,15.10
2023-01-01T08:10:33.395Z,15.40
2023-01-01T08:13:01.022Z,15.40
2023-01-01T08:15:27.783Z,15.40
2023-01-01T08:17:57.235Z,15.30
2023-01-01T08:20:24.020Z,15.50
2023-01-01T08:22:50.926Z,15.50
2023-01-01T08:25:17.616Z,15.30
2023-01-01T08:27:44.660Z,15.50
2023-01-01T08:30:13.843Z,15.50
2023-01-01T08:32:40.531Z,15.60
2023-01-01T08:35:08.811Z,15.80
2023-01-01T08:37:35.498Z,15.50
2023-01-01T08:40:02.219Z,15.40
2023-01-01T08:42:28.858Z,15.50
2023-01-01T08:44:55.502Z,15.50
2023-01-01T08:47:23.867Z,15.30
2023-01-01T08:52:19.073Z,15.60
2023-01-01T08:54:45.828Z,15.60
2023-01-01T08:57:12.640Z,15.70
2023-01-01T08:59:39.348Z,15.70
2023-01-01T09:02:07.037Z,15.60
2023-01-01T09:04:33.929Z,15.50
2023-01-01T09:07:00.550Z,15.60
2023-01-01T09:09:31.563Z,15.60
2023-01-01T09:12:03.384Z,15.60
2023-01-01T09:14:30.485Z,15.60
2023-01-01T09:16:57.140Z,15.70
2023-01-01T09:19:23.860Z,15.60
2023-01-01T09:21:50.832Z,15.70
2023-01-01T09:24:17.530Z,15.80
2023-01-01T09:26:46.072Z,15.70
2023-01-01T09:29:12.707Z,15.70
2023-01-01T09:31:39.342Z,15.60
2023-01-01T09:34:06.022Z,16.30
2023-01-01T09:36:33.698Z,15.60
2023-01-01T09:39:01.847Z,15.70
2023-01-01T09:41:55.012Z,15.90
2023-01-01T09:44:37.525Z,15.70
2023-01-01T09:47:10.445Z,15.80
2023-01-01T09:49:41.047Z,15.80
2023-01-01T09:52:12.872Z,15.90
2023-01-01T09:54:43.385Z,15.90
2023-01-01T09:57:19.801Z,15.90
2023-01-01T09:59:47.011Z,15.90
2023-01-01T10:02:36.389Z,15.90
2023-01-01T10:05:10.862Z,15.90
2023-01-01T10:07:43.838Z,16.00
2023-01-01T10:10:26.102Z,15.90
2023-01-01T10:13:00.147Z,16.00
2023-01-01T10:15:32.690Z,15.90
2023-01-01T10:18:02.997Z,16.20
2023-01-01T10:20:36.253Z,16.10
2023-01-01T10:23:11.803Z,16.20
2023-01-01T10:25:40.496Z,16.10
2023-01-01T10:28:18.458Z,16.20
2023-01-01T10:30:45.086Z,15.90
2023-01-01T10:33:13.477Z,16.10
2023-01-01T10:35:42.884Z,16.20
2023-01-01T10:38:18.393Z,16.20
2023-01-01T10:40:45.048Z,16.20
2023-01-01T10:43:12.323Z,16.20
2023-01-01T10:45:43.209Z,16.20
2023-01-01T10:48:12.298Z,16.00
2023-01-01T10:50:47.877Z,16.30
2023-01-01T10:53:27.590Z,16.10
2023-01-01T10:56:03.624Z,16.00
2023-01-01T10:58:45.596Z,16.20
2023-01-01T11:01:19.235Z,16.10
2023-01-01T11:03:57.581Z,16.20
2023-01-01T11:06:26.520Z,16.30
2023-01-01T11:08:55.499Z,16.40
2023-01-01T11:11:26.449Z,16.20
2023-01-01T11:13:55.809Z,16.40
2023-01-01T11:16:23.066Z,16.30
2023-01-01T11:18:50.283Z,16.20
2023-01-01T11:21:21.348Z,16.20
2023-01-01T11:23:50.961Z,16.20
2023-01-01T11:26:26.134Z,16.20
2023-01-01T11:29:02.020Z,16.30
2023-01-01T11:31:34.161Z,16.30
2023-01-01T11:34:01.170Z,16.20
2023-01-01T11:36:31.900Z,16.30
2023-01-01T11:39:12.556Z,16.30
2023-01-01T11:41:44.524Z,16.30
2023-01-01T11:44:22.072Z,16.30
2023-01-01T11:46:48.806Z,16.40
2023-01-01T11:49:22.953Z,16.40
2023-01-01T11:51:49.729Z,16.50
2023-01-01T11:54:32.019Z,16.60
2023-01-01T11:57:03.638Z,16.60
2023-01-01T11:59:41.322Z,16.50
2023-01-01T12:02:14.875Z,16.50
2023-01-01T12:04:46.781Z,16.70
2023-01-01T12:07:17.823Z,16.50
2023-01-01T12:09:50.316Z,16.50
2023-01-01T12:12:24.915Z,16.50
2023-01-01T12:14:58.988Z,16.50
2023-01-01T12:17:31.832Z,16.40
2023-01-01T12:20:04.383Z,16.50
2023-01-01T12:22:31.569Z,16.50
2023-01-01T12:24:58.556Z,16.30
2023-01-01T12:27:43.928Z,16.50
2023-01-01T12:30:20.631Z,16.30
2023-01-01T12:33:15.974Z,16.40
2023-01-01T12:36:14.482Z,16.40
2023-01-01T12:39:07.256Z,16.50
2023-01-01T12:41:44.573Z,16.50
2023-01-01T12:44:22.359Z,16.50
2023-01-01T12:46:58.306Z,16.50
2023-01-01T12:49:49.747Z,16.40
2023-01-01T12:52:32.083Z,16.20
2023-01-01T12:55:26.573Z,16.30
2023-01-01T12:58:00.156Z,16.30
2023-01-01T13:00:28.157Z,16.30
2023-01-01T13:02:59.833Z,16.10
2023-01-01T13:05:34.722Z,16.30
2023-01-01T13:08:03.037Z,16.30
2023-01-01T13:10:33.531Z,16.30
2023-01-01T13:13:01.268Z,16.20
2023-01-01T13:15:49.197Z,16.10
2023-01-01T13:18:28.830Z,16.20
2023-01-01T13:21:21.921Z,16.20
2023-01-01T13:23:50.389Z,16.10
2023-01-01T13:26:44.571Z,16.10
2023-01-01T13:29:35.030Z,16.00
2023-01-01T13:32:06.751Z,16.10
2023-01-01T13:34:53.202Z,16.00
2023-01-01T13:37:27.879Z,16.00
2023-01-01T13:39:56.149Z,16.00
2023-01-01T13:42:51.051Z,15.70
2023-01-01T13:46:00.813Z,15.90
2023-01-01T13:48:23.384Z,15.90
2023-01-01T13:51:01.490Z,15.90
2023-01-01T13:53:45.216Z,15.90
2023-01-01T13:56:32.893Z,15.90
2023-01-01T13:59:30.674Z,15.80
2023-01-01T14:02:02.098Z,15.80
2023-01-01T14:04:38.706Z,15.70
2023-01-01T14:07:41.267Z,15.70
2023-01-01T14:10:19.833Z,15.70
2023-01-01T14:12:46.647Z,15.50
2023-01-01T14:15:23.028Z,15.60
2023-01-01T14:17:50.245Z,15.50
2023-01-01T14:20:21.069Z,15.50
2023-01-01T14:22:50.542Z,15.60
2023-01-01T14:25:24.177Z,15.50
2023-01-01T14:27:50.848Z,15.60
2023-01-01T14:30:18.466Z,15.50
2023-01-01T14:32:45.191Z,15.40
2023-01-01T14:35:15.891Z,15.40
2023-01-01T14:37:43.117Z,15.40
2023-01-01T14:40:20.152Z,15.30
2023-01-01T14:42:50.334Z,15.30
2023-01-01T14:45:18.336Z,15.20
2023-01-01T14:47:48.720Z,15.40
2023-01-01T14:50:22.282Z,15.20
2023-01-01T14:52:56.732Z,15.10
2023-01-01T14:55:28.194Z,15.10
2023-01-01T14:58:00.375Z,15.10
2023-01-01T15:00:28.950Z,14.90
2023-01-01T15:03:05.353Z,15.00
2023-01-01T15:05:35.789Z,15.00
2023-01-01T15:08:05.345Z,15.00
2023-01-01T15:10:35.608Z,15.00
2023-01-01T15:13:06.255Z,15.00
2023-01-01T15:15:39.181Z,14.90
2023-01-01T15:18:06.758Z,14.90
2023-01-01T15:20:35.597Z,14.80
2023-01-01T15:23:09.985Z,14.80
2023-01-01T15:25:42.408Z,14.90
2023-01-01T15:28:19.559Z,14.80
2023-01-01T15:30:52.872Z,14.80
2023-01-01T15:33:20.007Z,14.80
2023-01-01T15:35:48.176Z,14.80
2023-01-01T15:38:20.378Z,14.80
2023-01-01T15:40:53.017Z,14.80
2023-01-01T15:43:22.828Z,14.80
2023-01-01T15:45:55.247Z,14.80
2023-01-01T15:48:28.154Z,14.80
2023-01-01T15:51:11.809Z,14.80
2023-01-01T15:53:53.853Z,14.80
2023-01-01T15:56:24.745Z,14.70
2023-01-01T15:58:55.753Z,14.60
2023-01-01T16:01:24.552Z,14.60
2023-01-01T16:03:58.959Z,14.60
2023-01-01T16:06:25.735Z,14.80
2023-01-01T16:08:52.376Z,14.40
2023-01-01T16:11:19.465Z,14.50
2023-01-01T16:13:46.990Z,14.50
2023-01-01T16:16:28.535Z,14.40
2023-01-01T16:18:57.465Z,14.40
2023-01-01T16:21:26.951Z,14.30
2023-01-01T16:23:54.125Z,14.40
2023-01-01T16:26:21.277Z,14.30
2023-01-01T16:28:49.205Z,14.40
2023-01-01T16:31:17.213Z,14.20
2023-01-01T16:33:47.821Z,14.20
2023-01-01T16:36:14.603Z,14.10
2023-01-01T16:38:41.541Z,14.10
2023-01-01T16:41:14.397Z,14.10
2023-01-01T16:43:41.452Z,14.20
2023-01-01T16:46:13.290Z,13.90
2023-01-01T16:48:41.322Z,14.00
2023-01-01T16:51:16.831Z,13.90
2023-01-01T16:53:43.857Z,13.90
2023-01-01T16:56:12.359Z,13.80
2023-01-01T16:59:02.326Z,13.80
2023-01-01T17:01:27.645Z,13.70
2023-01-01T17:03:55.028Z,13.70
2023-01-01T17:06:21.722Z,13.40
2023-01-01T17:08:48.823Z,13.60
2023-01-01T17:11:18.098Z,13.60
2023-01-01T17:13:47.283Z,13.50
2023-01-01T17:16:21.105Z,13.30
2023-01-01T17:21:39.811Z,13.40
2023-01-01T17:24:07.162Z,13.40
2023-01-01T17:26:34.306Z,13.40
2023-01-01T17:29:02.265Z,13.40
2023-01-01T17:31:29.406Z,13.40
2023-01-01T17:33:56.988Z,13.30
2023-01-01T17:36:26.346Z,13.30
2023-01-01T17:38:53.264Z,13.30
2023-01-01T17:41:20.510Z,13.30
2023-01-01T17:43:50.405Z,13.20
2023-01-01T17:46:19.599Z,13.20
2023-01-01T17:48:50.380Z,13.20
2023-01-01T17:51:19.760Z,13.20
2023-01-01T17:53:51.388Z,13.10
2023-01-01T17:56:21.633Z,13.10
2023-01-01T17:58:52.988Z,13.20
2023-01-01T18:01:30.158Z,13.10
2023-01-01T18:04:01.190Z,13.10
2023-01-01T18:06:37.356Z,13.10
2023-01-01T18:09:13.451Z,13.00
2023-01-01T18:11:40.852Z,13.00
2023-01-01T18:14:08.637Z,12.90
2023-01-01T18:16:37.705Z,13.40
2023-01-01T18:19:05.155Z,12.80
2023-01-01T18:21:33.278Z,12.80
2023-01-01T18:24:01.128Z,12.80
2023-01-01T18:26:30.706Z,12.80
2023-01-01T18:28:59.239Z,12.80
2023-01-01T18:31:27.664Z,12.90
2023-01-01T18:33:54.771Z,12.60
2023-01-01T18:36:23.681Z,12.70
2023-01-01T18:38:57.282Z,12.70
2023-01-01T18:42:01.485Z,12.60
2023-01-01T18:44:29.998Z,12.50
2023-01-01T18:46:59.865Z,12.60
2023-01-01T18:49:26.590Z,12.50
2023-01-01T18:51:58.522Z,12.50
2023-01-01T18:54:26.015Z,12.50
2023-01-01T18:57:01.567Z,12.40
2023-01-01T18:59:28.247Z,12.40
2023-01-01T19:01:55.363Z,12.40
2023-01-01T19:04:22.219Z,12.40
2023-01-01T19:06:49.054Z,12.30
2023-01-01T19:09:20.874Z,11.10
2023-01-01T19:11:50.033Z,12.60
2023-01-01T19:14:18.706Z,12.50
2023-01-01T19:16:46.764Z,12.40
2023-01-01T19:19:17.737Z,12.40
2023-01-01T19:21:51.029Z,12.40
2023-01-01T19:24:21.495Z,12.40
2023-01-01T19:26:57.763Z,12.30
2023-01-01T19:29:25.715Z,12.30
2023-01-01T19:31:54.290Z,12.30
2023-01-01T19:34:21.854Z,12.30
2023-01-01T19:36:48.972Z,12.30
2023-01-01T19:39:15.975Z,12.40
2023-01-01T19:41:43.066Z,12.40
2023-01-01T19:44:10.712Z,12.40
2023-01-01T19:46:38.237Z,12.50
2023-01-01T19:49:04.986Z,12.60
2023-01-01T19:51:31.784Z,12.60
2023-01-01T19:53:58.423Z,12.70
2023-01-01T19:56:25.200Z,12.90
2023-01-01T19:58:52.499Z,12.80
2023-01-01T20:01:20.285Z,12.90
2023-01-01T20:03:56.418Z,13.00
2023-01-01T20:06:24.325Z,12.90
2023-01-01T20:08:50.941Z,13.00
2023-01-01T20:11:17.860Z,13.00
2023-01-01T20:13:44.520Z,13.00
2023-01-01T20:16:11.388Z,13.10
2023-01-01T20:18:39.046Z,13.10
2023-01-01T20:21:26.617Z,13.00
2023-01-01T20:23:53.961Z,13.00
2023-01-01T20:26:22.734Z,13.10
2023-01-01T20:29:07.441Z,13.00
2023-01-01T20:31:34.109Z,13.00
2023-01-01T20:34:01.501Z,13.00
2023-01-01T20:36:46.144Z,13.00
2023-01-01T20:39:12.795Z,13.00
2023-01-01T20:41:39.560Z,13.00
2023-01-01T20:44:06.199Z,13.00
2023-01-01T20:46:32.971Z,12.90
2023-01-01T20:48:59.722Z,12.90
2023-01-01T20:51:27.211Z,12.90
2023-01-01T20:53:53.953Z,12.80
2023-01-01T20:56:20.622Z,12.80
2023-01-01T20:58:50.319Z,12.80
2023-01-01T21:01:20.011Z,12.80
2023-01-01T21:03:46.820Z,12.80
2023-01-01T21:06:17.124Z,12.90
2023-01-01T21:08:47.427Z,12.90
2023-01-01T21:11:14.792Z,12.90
2023-01-01T21:13:43.423Z,12.80
2023-01-01T21:16:16.508Z,12.90
2023-01-01T21:18:43.782Z,12.90
2023-01-01T21:21:17.458Z,12.90
2023-01-01T21:23:44.149Z,12.90
2023-01-01T21:26:15.987Z,12.90
2023-01-01T21:28:43.879Z,12.90
2023-01-01T21:31:13.564Z,12.90
2023-01-01T21:33:41.806Z,12.90
2023-01-01T21:36:15.925Z,12.90
2023-01-01T21:38:42.643Z,12.90
2023-01-01T21:41:19.140Z,12.90
2023-01-01T21:43:47.892Z,12.90
2023-01-01T21:46:31.646Z,12.90
2023-01-01T21:49:01.264Z,12.90
2023-01-01T21:51:31.742Z,12.90
2023-01-01T21:54:17.233Z,12.90
2023-01-01T21:56:52.613Z,12.50
2023-01-01T21:59:25.477Z,12.90
2023-01-01T22:01:53.439Z,12.80
2023-01-01T22:04:23.060Z,12.80
2023-01-01T22:06:51.543Z,12.80
2023-01-01T22:09:22.366Z,12.80
2023-01-01T22:11:52.178Z,12.80
2023-01-01T22:14:21.520Z,12.80
2023-01-01T22:16:51.209Z,12.80
2023-01-01T22:19:21.354Z,12.80
2023-01-01T22:21:48.956Z,12.80
2023-01-01T22:24:39.832Z,12.80
2023-01-01T22:27:26.450Z,12.00
2023-01-01T22:29:53.550Z,12.80
2023-01-01T22:32:24.422Z,12.80
2023-01-01T22:34:52.574Z,12.80
2023-01-01T22:37:22.297Z,12.80
2023-01-01T22:39:49.635Z,12.80
2023-01-01T22:42:19.473Z,12.80
2023-01-01T22:44:56.661Z,12.80
2023-01-01T22:47:32.783Z,12.70
2023-01-01T22:50:00.708Z,12.70
2023-01-01T22:52:27.472Z,11.50
2023-01-01T22:54:54.152Z,12.70
2023-01-01T22:57:20.838Z,12.70
2023-01-01T22:59:48.179Z,12.70
2023-01-01T23:02:14.866Z,12.70
2023-01-01T23:04:41.520Z,12.80
2023-01-01T23:07:13.753Z,12.80
2023-01-01T23:09:43.509Z,12.80
2023-01-01T23:12:10.276Z,12.80
2023-01-01T23:14:55.552Z,12.80
2023-01-01T23:17:22.836Z,12.80
2023-01-01T23:19:49.538Z,12.80
2023-01-01T23:22:17.283Z,12.80
2023-01-01T23:24:45.268Z,12.90
2023-01-01T23:27:14.208Z,12.80
2023-01-01T23:29:44.418Z,12.90
2023-01-01T23:32:12.180Z,13.00
2023-01-01T23:34:40.463Z,12.90
2023-01-01T23:37:07.107Z,12.90
2023-01-01T23:39:33.691Z,12.90
2023-01-01T23:42:00.532Z,12.90
2023-01-01T23:44:27.231Z,12.80
2023-01-01T23:46:54.360Z,13.00
2023-01-01T23:49:22.218Z,12.80
2023-01-01T23:51:49.774Z,12.80
2023-01-01T23:54:16.582Z,12.80
2023-01-01T23:56:43.257Z,12.80
2023-01-01T23:59:11.137Z,12.70
